Columbus, Ohio
Traffic Map
Current Weather Conditions
Columbus, Ohio
Scattered Clouds
Scattered Clouds
83°
Feels Like: 86°
Wind Chill: 83° Ceiling: Unl
Heat Index: 86° Visibility: 9mi
Dew Point: 68° Wind: 15mph
Humidity: 60% Direction: 210° (SSW)
Pressure: 30.01in Gusts: 0mph
Raw Report DataKCMH 211451Z 21013KT 9SM SCT120 28/20 A3001 RMK AO2 SLP155 T02830200 58002
Traffic Incident Summary
Active as of:
Severity:
Category:
InformationThere was an issue retrieving the traffic information for this location. Please try a different location or try again shortly.
Advertisements